createdAt,value
2022-12-31T00:00:40.581Z,6.32
2022-12-31T00:05:38.812Z,7.75
2022-12-31T00:10:41.682Z,5.70
2022-12-31T00:15:41.979Z,6.25
2022-12-31T00:20:41.503Z,5.97
2022-12-31T00:25:39.654Z,6.72
2022-12-31T00:30:37.861Z,7.55
2022-12-31T00:35:37.587Z,8.55
2022-12-31T00:40:35.748Z,9.68
2022-12-31T00:45:33.925Z,7.50
2022-12-31T00:50:32.054Z,8.93
2022-12-31T00:55:32.648Z,7.05
2022-12-31T01:00:31.220Z,9.65
2022-12-31T01:05:29.412Z,8.15
2022-12-31T01:10:41.437Z,6.45
2022-12-31T01:15:41.160Z,6.75
2022-12-31T01:20:39.927Z,7.93
2022-12-31T01:25:38.406Z,9.32
2022-12-31T01:30:39.411Z,8.30
2022-12-31T01:35:38.978Z,8.45
2022-12-31T01:40:37.773Z,9.00
2022-12-31T01:45:35.947Z,8.80
2022-12-31T01:50:35.062Z,8.75
2022-12-31T01:55:36.139Z,8.60
2022-12-31T02:00:34.505Z,8.18
2022-12-31T02:05:37.126Z,9.10
2022-12-31T02:10:36.643Z,7.05
2022-12-31T02:15:38.655Z,8.02
2022-12-31T02:20:51.672Z,7.30
2022-12-31T02:26:02.696Z,6.55
2022-12-31T02:31:04.806Z,6.38
2022-12-31T02:36:04.205Z,6.28
2022-12-31T02:41:02.667Z,6.80
2022-12-31T02:46:08.978Z,6.43
2022-12-31T02:51:13.315Z,5.78
2022-12-31T02:56:14.441Z,7.37
2022-12-31T03:01:32.990Z,6.57
2022-12-31T03:06:31.280Z,6.38
2022-12-31T03:11:47.192Z,7.65
2022-12-31T03:16:49.192Z,8.68
2022-12-31T03:22:04.613Z,20.27
2022-12-31T03:27:02.799Z,13.95
2022-12-31T03:32:02.441Z,8.20
2022-12-31T03:37:00.601Z,10.20
2022-12-31T03:41:58.837Z,7.78
2022-12-31T03:46:56.990Z,6.70
2022-12-31T03:51:56.501Z,6.82
2022-12-31T03:56:59.906Z,6.88
2022-12-31T04:01:58.671Z,6.35
2022-12-31T04:06:58.228Z,6.82
2022-12-31T04:11:56.397Z,6.55
2022-12-31T04:16:54.547Z,6.20
2022-12-31T04:21:52.705Z,6.50
2022-12-31T04:26:52.200Z,6.93
2022-12-31T04:31:50.490Z,6.13
2022-12-31T04:36:48.626Z,6.30
2022-12-31T04:41:48.122Z,7.07
2022-12-31T04:46:47.835Z,6.18
2022-12-31T04:51:45.999Z,7.18
2022-12-31T04:56:44.140Z,12.00
2022-12-31T05:01:42.464Z,6.50
2022-12-31T05:06:42.089Z,5.97
2022-12-31T05:11:40.259Z,7.97
2022-12-31T05:16:38.496Z,7.60
2022-12-31T05:21:36.722Z,6.50
2022-12-31T05:26:36.251Z,7.43
2022-12-31T05:31:34.411Z,6.40
2022-12-31T05:36:32.562Z,6.03
2022-12-31T05:41:30.703Z,7.45
2022-12-31T05:46:30.271Z,6.03
2022-12-31T05:51:28.452Z,6.68
2022-12-31T05:56:26.620Z,6.53
2022-12-31T06:01:24.880Z,6.60
2022-12-31T06:06:24.440Z,6.90
2022-12-31T06:11:22.590Z,6.78
2022-12-31T06:16:20.775Z,7.45
2022-12-31T06:21:19.523Z,5.60
2022-12-31T06:26:19.059Z,7.07
2022-12-31T06:31:17.343Z,8.07
2022-12-31T06:36:16.363Z,7.10
2022-12-31T06:41:16.200Z,6.70
2022-12-31T06:46:16.815Z,7.28
2022-12-31T06:51:17.424Z,11.35
2022-12-31T06:56:17.527Z,7.03
2022-12-31T07:01:30.125Z,6.35
2022-12-31T07:06:32.423Z,6.90
2022-12-31T07:11:33.319Z,6.50
2022-12-31T07:16:37.398Z,23.98
2022-12-31T07:21:36.829Z,25.42
2022-12-31T07:26:51.135Z,7.97
2022-12-31T07:31:59.878Z,7.57
2022-12-31T07:37:03.811Z,8.43
2022-12-31T08:00:11.697Z,20.70
2022-12-31T08:05:16.853Z,11.40
2022-12-31T08:10:18.269Z,9.18
2022-12-31T08:15:18.225Z,9.82
2022-12-31T08:20:18.881Z,10.25
2022-12-31T08:25:19.568Z,9.52
2022-12-31T08:30:18.678Z,11.52
2022-12-31T08:35:27.219Z,16.98
2022-12-31T08:40:27.261Z,15.38
2022-12-31T08:45:27.316Z,13.05
2022-12-31T08:50:27.589Z,11.63
2022-12-31T08:55:26.088Z,13.20
2022-12-31T09:00:24.746Z,32.45
2022-12-31T09:05:25.126Z,9.77
2022-12-31T09:10:27.048Z,11.35
2022-12-31T09:15:27.827Z,11.23
2022-12-31T09:20:36.330Z,12.27
2022-12-31T09:25:43.969Z,12.05
2022-12-31T09:30:46.824Z,10.10
2022-12-31T09:35:50.394Z,10.88
2022-12-31T09:41:03.466Z,10.88
2022-12-31T09:46:16.199Z,10.60
2022-12-31T09:51:24.877Z,13.13
2022-12-31T09:56:26.924Z,16.63
2022-12-31T10:01:32.207Z,14.32
2022-12-31T10:06:38.229Z,15.43
2022-12-31T10:11:44.305Z,12.68
2022-12-31T10:16:53.188Z,23.67
2022-12-31T10:22:00.240Z,21.13
2022-12-31T10:27:11.232Z,18.67
2022-12-31T10:32:16.696Z,40.00
2022-12-31T10:37:17.256Z,14.93
2022-12-31T10:42:27.415Z,15.75
2022-12-31T10:47:47.050Z,15.48
2022-12-31T10:53:01.403Z,17.33
2022-12-31T10:58:16.135Z,16.73
2022-12-31T11:03:41.395Z,14.40
2022-12-31T11:08:56.285Z,18.30
2022-12-31T11:14:12.219Z,17.70
2022-12-31T11:19:13.775Z,12.65
2022-12-31T11:24:19.261Z,26.85
2022-12-31T11:29:27.153Z,17.02
2022-12-31T11:34:38.168Z,13.93
2022-12-31T11:39:44.615Z,16.55
2022-12-31T11:44:46.393Z,11.05
2022-12-31T11:49:58.682Z,13.18
2022-12-31T11:55:04.911Z,15.80
2022-12-31T12:00:04.636Z,14.02
2022-12-31T12:05:11.774Z,15.52
2022-12-31T12:10:18.876Z,16.33
2022-12-31T12:15:19.530Z,24.67
2022-12-31T12:20:19.647Z,71.00
2022-12-31T12:25:20.634Z,76.93
2022-12-31T12:30:22.926Z,29.83
2022-12-31T12:35:24.756Z,31.13
2022-12-31T12:40:33.079Z,17.13
2022-12-31T12:45:39.237Z,22.20
2022-12-31T12:50:39.558Z,17.30
2022-12-31T12:55:42.949Z,29.65
2022-12-31T13:00:44.983Z,11.38
2022-12-31T13:05:49.228Z,12.30
2022-12-31T13:10:57.155Z,16.85
2022-12-31T13:15:58.030Z,12.68
2022-12-31T13:20:59.385Z,14.80
2022-12-31T13:26:05.998Z,13.25
2022-12-31T13:31:07.343Z,20.90
2022-12-31T13:36:06.717Z,28.40
2022-12-31T13:41:07.262Z,28.05
2022-12-31T13:46:09.793Z,45.35
2022-12-31T13:51:12.266Z,46.03
2022-12-31T13:56:14.376Z,42.33
2022-12-31T14:01:14.925Z,25.55
2022-12-31T14:06:18.286Z,25.63
2022-12-31T14:11:22.136Z,26.58
2022-12-31T14:16:23.499Z,25.00
2022-12-31T14:21:24.551Z,24.23
2022-12-31T14:26:27.488Z,48.22
2022-12-31T14:31:32.056Z,28.83
2022-12-31T14:36:35.539Z,42.30
2022-12-31T14:41:43.375Z,41.80
2022-12-31T14:46:46.236Z,56.63
2022-12-31T14:51:44.866Z,58.47
2022-12-31T14:56:46.342Z,44.05
2022-12-31T15:01:46.101Z,39.90
2022-12-31T15:06:55.643Z,27.98
2022-12-31T15:12:06.989Z,56.53
2022-12-31T15:17:10.202Z,132.88
2022-12-31T15:22:16.080Z,145.75
2022-12-31T15:27:27.885Z,134.98
2022-12-31T15:32:29.861Z,134.50
2022-12-31T15:37:30.685Z,92.05
2022-12-31T15:42:39.852Z,123.28
2022-12-31T15:47:41.348Z,56.28
2022-12-31T15:52:42.829Z,22.20
2022-12-31T15:57:43.116Z,27.30
2022-12-31T16:02:43.231Z,17.42
2022-12-31T16:07:42.016Z,18.27
2022-12-31T16:12:44.707Z,17.25
2022-12-31T16:17:45.346Z,37.38
2022-12-31T16:22:43.507Z,42.33
2022-12-31T16:27:41.830Z,16.48
2022-12-31T16:32:40.261Z,23.13
2022-12-31T16:37:39.792Z,55.22
2022-12-31T16:42:44.330Z,39.95
2022-12-31T16:47:43.932Z,30.55
2022-12-31T16:52:44.628Z,24.08
2022-12-31T16:57:44.326Z,25.83
2022-12-31T17:02:44.223Z,24.40
2022-12-31T17:07:43.989Z,17.67
2022-12-31T17:13:24.968Z,20.35
2022-12-31T17:18:03.409Z,15.02
2022-12-31T17:23:06.721Z,15.23
2022-12-31T17:28:05.631Z,12.98
2022-12-31T17:33:05.139Z,11.30
2022-12-31T17:38:21.647Z,13.25
2022-12-31T17:43:22.347Z,17.10
2022-12-31T17:48:20.975Z,15.32
2022-12-31T17:53:19.295Z,14.15
2022-12-31T17:58:19.110Z,13.75
2022-12-31T18:03:18.674Z,71.25
2022-12-31T18:08:16.852Z,60.55
2022-12-31T18:13:17.432Z,28.80
2022-12-31T18:18:25.492Z,18.27
2022-12-31T18:23:26.467Z,42.40
2022-12-31T18:28:24.722Z,34.08
2022-12-31T18:33:25.216Z,17.73
2022-12-31T18:38:23.374Z,15.20
2022-12-31T18:43:21.657Z,25.02
2022-12-31T18:48:20.241Z,21.23
2022-12-31T18:53:20.700Z,16.90
2022-12-31T18:58:18.946Z,20.80
2022-12-31T19:03:17.965Z,20.65
2022-12-31T19:08:16.225Z,10.75
2022-12-31T19:13:16.546Z,11.18
2022-12-31T19:18:14.725Z,11.75
2022-12-31T19:23:16.440Z,11.00
2022-12-31T19:28:18.403Z,12.10
2022-12-31T19:33:16.666Z,12.52
2022-12-31T19:38:18.083Z,12.75
2022-12-31T19:43:18.986Z,12.32
2022-12-31T19:48:17.990Z,12.35
2022-12-31T19:53:17.179Z,15.65
2022-12-31T19:58:19.037Z,12.73
2022-12-31T20:03:17.245Z,11.35
2022-12-31T20:08:17.028Z,10.30
2022-12-31T20:13:15.187Z,10.23
2022-12-31T20:18:17.478Z,9.13
2022-12-31T20:23:15.716Z,8.48
2022-12-31T20:28:13.862Z,9.13
2022-12-31T20:33:17.325Z,9.68
2022-12-31T20:38:18.479Z,9.27
2022-12-31T20:43:16.635Z,10.23
2022-12-31T20:48:14.823Z,10.50
2022-12-31T20:53:13.236Z,10.70
2022-12-31T20:58:13.029Z,8.38
2022-12-31T21:03:36.774Z,9.95
2022-12-31T21:08:34.525Z,12.98
2022-12-31T21:13:34.738Z,9.50
2022-12-31T21:18:33.214Z,9.40
2022-12-31T21:23:32.798Z,8.63
2022-12-31T21:28:31.301Z,9.35
2022-12-31T21:33:30.971Z,8.40
2022-12-31T21:38:29.133Z,8.82
2022-12-31T21:43:27.331Z,7.65
2022-12-31T21:48:25.572Z,8.65
2022-12-31T21:53:32.089Z,9.10
2022-12-31T21:58:33.355Z,9.05
2022-12-31T22:03:32.334Z,77.47
2022-12-31T22:08:31.981Z,23.98
2022-12-31T22:13:30.161Z,10.65
2022-12-31T22:18:28.785Z,9.13
2022-12-31T22:23:26.938Z,8.02
2022-12-31T22:28:38.012Z,7.97
2022-12-31T22:33:37.571Z,14.48
2022-12-31T22:38:35.912Z,8.50
2022-12-31T22:43:36.502Z,8.43
2022-12-31T22:48:34.892Z,8.63
2022-12-31T22:53:33.243Z,9.85
2022-12-31T22:58:31.410Z,9.13
2022-12-31T23:03:30.990Z,9.60
2022-12-31T23:08:29.185Z,8.88
2022-12-31T23:13:50.165Z,10.43
2022-12-31T23:19:08.658Z,9.98
2022-12-31T23:24:13.465Z,11.45
2022-12-31T23:29:16.410Z,10.00
2022-12-31T23:34:16.650Z,10.38
2022-12-31T23:39:14.807Z,10.20
2022-12-31T23:44:13.266Z,9.75
2022-12-31T23:49:11.487Z,9.40
2022-12-31T23:54:11.274Z,9.50
2022-12-31T23:59:10.727Z,9.40
